Time;durP1;ratioP1;P1;durP2;ratioP2;P2;SDS_P1;SDS_P2;PMS_P1;PMS_P2;Temp;Humidity;BMP_temperature;BMP_pressure;BME280_temperature;BME280_humidity;BME280_pressure;Samples;Min_cycle;Max_cycle;Signal;HPM_P1;HPM_P2
2023/12/21 00:01:37;;;;;;;2.70;1.90;;;;;;;4.63;70.95;97749.58;108868;1263;58853;-26
2023/12/21 00:04:07;;;;;;;2.90;1.70;;;;;;;4.41;71.66;97748.51;108918;1262;60159;-26
2023/12/21 00:06:38;;;;;;;2.60;2.00;;;;;;;4.22;71.97;97748.39;108927;1261;73882;-26
2023/12/21 00:09:08;;;;;;;2.80;1.70;;;;;;;3.94;72.86;97744.67;108926;1261;75414;-26
2023/12/21 00:11:38;;;;;;;2.60;1.50;;;;;;;3.75;73.38;97750.86;108910;1261;71362;-26
2023/12/21 00:14:10;;;;;;;3.60;2.30;;;;;;;3.61;73.62;97751.73;108801;1260;59409;-27
2023/12/21 00:16:41;;;;;;;1.90;1.50;;;;;;;3.42;74.39;97755.69;108803;1261;58835;-26
2023/12/21 00:19:11;;;;;;;2.60;1.70;;;;;;;3.87;73.51;97748.77;108916;1262;72817;-26
2023/12/21 00:21:41;;;;;;;3.20;1.50;;;;;;;4.24;71.64;97745.72;108925;1262;73081;-26
2023/12/21 00:24:11;;;;;;;3.10;1.70;;;;;;;4.29;70.87;97741.04;108897;1262;72681;-26
2023/12/21 00:26:41;;;;;;;3.40;2.10;;;;;;;4.07;71.08;97740.77;108854;1262;58837;-26
2023/12/21 00:29:13;;;;;;;4.90;2.10;;;;;;;3.89;71.84;97736.77;108834;1261;60400;-26
2023/12/21 00:31:43;;;;;;;2.50;1.80;;;;;;;3.71;72.18;97735.58;108895;1262;74081;-26
2023/12/21 00:34:14;;;;;;;4.20;1.90;;;;;;;3.53;72.20;97735.99;108816;1261;73192;-26
2023/12/21 00:36:46;;;;;;;3.00;1.90;;;;;;;3.33;72.86;97735.25;108898;1263;71384;-26
2023/12/21 00:46:48;;;;;;;2.20;1.60;;;;;;;3.92;72.94;97754.09;103073;1287;599979;-25
2023/12/21 00:49:16;;;;;;;2.80;1.60;;;;;;;3.89;72.29;97755.48;104871;1279;61183;-25
2023/12/21 00:59:51;;;;;;;3.30;1.90;;;;;;;3.09;74.69;97749.13;102377;1291;615072;-27
2023/12/21 01:02:18;;;;;;;3.20;1.80;;;;;;;3.25;75.14;97749.00;104889;1270;61079;-27
2023/12/21 01:04:45;;;;;;;2.90;2.00;;;;;;;3.80;73.36;97748.09;104883;1271;61094;-27
2023/12/21 01:07:12;;;;;;;2.00;1.80;;;;;;;3.91;72.45;97748.70;104901;1266;72253;-27
2023/12/21 01:09:39;;;;;;;3.80;2.50;;;;;;;3.70;72.66;97739.71;104909;1266;73351;-27
2023/12/21 01:12:06;;;;;;;2.50;1.90;;;;;;;3.51;73.07;97736.88;104817;1266;133029;-27
2023/12/21 01:14:33;;;;;;;3.70;2.10;;;;;;;3.23;74.41;97735.59;105095;1262;61147;-27
2023/12/21 01:17:00;;;;;;;2.90;2.20;;;;;;;3.03;74.66;97731.70;105205;1267;61192;-27
2023/12/21 01:19:27;;;;;;;3.30;2.50;;;;;;;2.82;75.08;97726.28;105239;1268;72028;-27
2023/12/21 01:21:54;;;;;;;3.30;2.10;;;;;;;2.64;75.75;97726.54;105257;1267;74116;-27
2023/12/21 01:24:22;;;;;;;6.90;2.20;;;;;;;3.10;75.10;97723.84;105209;1266;71596;-27
2023/12/21 01:26:49;;;;;;;3.20;1.90;;;;;;;3.65;73.24;97721.70;104924;1264;61149;-27
2023/12/21 01:29:16;;;;;;;5.40;2.70;;;;;;;3.67;72.70;97714.88;104983;1270;61109;-27
2023/12/21 01:31:42;;;;;;;3.60;2.50;;;;;;;3.51;72.71;97712.97;105009;1263;73007;-27
2023/12/21 01:34:09;;;;;;;3.50;2.30;;;;;;;3.28;73.21;97708.31;105184;1276;74319;-27
2023/12/21 01:36:36;;;;;;;4.00;2.70;;;;;;;3.04;73.75;97705.91;105215;1267;72674;-27
2023/12/21 01:39:03;;;;;;;3.60;2.30;;;;;;;2.78;75.13;97703.94;105142;1264;61060;-27
2023/12/21 01:41:30;;;;;;;3.30;2.40;;;;;;;2.54;77.02;97707.35;104967;1268;61068;-27
2023/12/21 01:43:58;;;;;;;4.60;1.90;;;;;;;2.35;78.60;97704.41;104997;1269;71885;-27
2023/12/21 01:46:25;;;;;;;3.40;2.10;;;;;;;2.81;77.89;97708.92;104788;1269;72910;-27
2023/12/21 01:48:51;;;;;;;3.30;1.80;;;;;;;3.39;75.20;97706.30;105048;1267;73196;-27
2023/12/21 01:51:18;;;;;;;4.00;2.60;;;;;;;3.54;73.50;97698.35;104758;1264;61125;-27
2023/12/21 01:53:45;;;;;;;8.40;2.10;;;;;;;3.29;73.86;97695.73;105250;1269;61218;-27
2023/12/21 01:56:13;;;;;;;1.20;1.00;;;;;;;2.92;75.58;97697.88;105495;1262;73544;-27
2023/12/21 01:58:40;;;;;;;2.80;2.40;;;;;;;2.72;75.95;97695.69;105399;1258;74166;-27
2023/12/21 02:01:07;;;;;;;4.70;2.20;;;;;;;2.51;76.39;97694.20;105346;1263;72660;-27
2023/12/21 02:03:34;;;;;;;4.00;2.00;;;;;;;2.60;76.54;97695.11;105184;1262;61154;-27
2023/12/21 02:06:01;;;;;;;2.90;1.80;;;;;;;3.19;74.92;97699.16;105239;1269;61128;-27
2023/12/21 02:08:28;;;;;;;3.70;1.30;;;;;;;3.29;74.27;97695.87;105462;1262;73033;-26
2023/12/21 02:10:59;;;;;;;4.50;2.70;;;;;;;3.02;75.47;97696.45;105412;1263;74343;-26
2023/12/21 02:13:26;;;;;;;3.50;2.50;;;;;;;2.72;76.93;97690.70;105234;1264;71740;-26
2023/12/21 02:15:53;;;;;;;4.30;2.30;;;;;;;2.50;77.94;97683.79;105430;1263;61858;-27
2023/12/21 02:18:20;;;;;;;4.40;2.60;;;;;;;2.33;78.93;97684.12;105108;1265;61235;-27
2023/12/21 02:20:48;;;;;;;4.80;2.70;;;;;;;2.59;78.66;97681.68;105259;1263;73110;-27
2023/12/21 02:23:16;;;;;;;4.30;2.70;;;;;;;2.99;77.25;97682.30;104936;1262;74390;-27
2023/12/21 02:25:43;;;;;;;3.50;2.70;;;;;;;2.95;77.08;97680.32;105280;1264;72574;-27
2023/12/21 02:28:10;;;;;;;3.90;2.70;;;;;;;2.69;78.12;97680.12;105211;1259;61028;-26
2023/12/21 02:30:36;;;;;;;5.00;3.30;;;;;;;2.51;78.95;97681.31;105214;1264;61183;-27
2023/12/21 02:33:04;;;;;;;6.00;3.90;;;;;;;2.38;79.59;97677.43;105213;1263;73356;-27
2023/12/21 02:35:31;;;;;;;4.00;2.80;;;;;;;2.80;78.73;97679.13;105201;1265;74286;-26
2023/12/21 02:37:58;;;;;;;6.00;4.00;;;;;;;3.17;76.91;97672.60;105428;1259;72743;-27
2023/12/21 02:40:25;;;;;;;4.30;3.30;;;;;;;3.04;77.07;97677.30;105450;1260;61147;-27
2023/12/21 02:42:51;;;;;;;10.30;3.80;;;;;;;2.85;77.57;97678.94;105513;1263;61161;-27
2023/12/21 02:45:18;;;;;;;5.00;3.60;;;;;;;2.60;78.68;97675.58;105506;1262;73007;-27
2023/12/21 02:47:45;;;;;;;4.70;3.80;;;;;;;2.43;79.26;97675.06;105004;1275;74370;-27
2023/12/21 02:50:13;;;;;;;3.70;2.90;;;;;;;2.63;79.06;97678.63;105173;1265;72564;-26
2023/12/21 02:52:40;;;;;;;5.40;3.40;;;;;;;3.07;77.49;97675.48;105318;1261;61140;-27
2023/12/21 02:55:08;;;;;;;5.30;3.20;;;;;;;3.27;76.25;97673.20;105476;1259;61176;-27
2023/12/21 02:57:34;;;;;;;6.50;4.60;;;;;;;3.21;75.82;97671.05;105509;1262;73453;-27
2023/12/21 03:00:01;;;;;;;4.90;3.60;;;;;;;2.97;76.36;97673.99;105518;1262;74209;-27
2023/12/21 03:02:28;;;;;;;7.00;4.40;;;;;;;2.81;76.79;97669.48;105470;1263;72524;-27
2023/12/21 03:04:55;;;;;;;6.80;3.20;;;;;;;2.49;78.30;97665.38;105180;1260;61213;-27
2023/12/21 03:07:22;;;;;;;7.00;3.40;;;;;;;2.74;78.48;97667.92;105231;1264;61177;-26
2023/12/21 03:09:49;;;;;;;6.10;3.90;;;;;;;3.05;76.90;97669.29;105065;1261;73013;-27
2023/12/21 03:12:16;;;;;;;9.60;4.30;;;;;;;3.19;75.85;97663.47;105042;1265;73353;-27
2023/12/21 03:14:43;;;;;;;5.50;3.80;;;;;;;2.95;76.47;97661.94;105343;1259;72594;-27
2023/12/21 03:17:10;;;;;;;7.50;4.10;;;;;;;2.74;77.31;97658.30;105041;1260;61115;-26
2023/12/21 03:19:37;;;;;;;4.50;3.20;;;;;;;2.73;77.09;97648.95;105249;1263;61260;-27
2023/12/21 03:22:04;;;;;;;4.20;2.20;;;;;;;3.02;76.56;97647.20;105504;1260;73504;-27
2023/12/21 03:24:31;;;;;;;5.10;3.00;;;;;;;3.50;75.09;97647.87;105572;1257;74517;-27
2023/12/21 03:26:58;;;;;;;3.60;2.40;;;;;;;3.57;74.03;97644.89;105617;1258;72674;-27
2023/12/21 03:29:25;;;;;;;5.50;3.50;;;;;;;3.35;74.63;97647.93;105594;1257;61063;-27
2023/12/21 03:31:54;;;;;;;6.00;3.30;;;;;;;3.20;75.06;97647.34;105622;1260;61239;-27
2023/12/21 03:34:21;;;;;;;4.70;2.80;;;;;;;3.08;75.45;97647.13;105561;1257;73612;-27
2023/12/21 03:36:48;;;;;;;6.00;3.50;;;;;;;2.83;76.45;97649.48;105527;1261;74335;-27
2023/12/21 03:39:14;;;;;;;5.40;3.50;;;;;;;3.04;76.27;97644.16;105537;1258;71677;-26
2023/12/21 03:41:41;;;;;;;6.00;3.60;;;;;;;3.62;74.38;97648.89;105467;1257;61010;-27
2023/12/21 03:44:08;;;;;;;7.10;4.50;;;;;;;3.77;73.21;97653.09;105399;1260;61107;-27
2023/12/21 03:46:35;;;;;;;7.40;4.20;;;;;;;3.64;73.26;97649.02;105416;1258;72861;-27
2023/12/21 03:49:02;;;;;;;6.70;4.20;;;;;;;3.53;73.43;97648.02;105388;1257;74237;-27
2023/12/21 03:51:29;;;;;;;4.90;3.60;;;;;;;3.36;73.76;97641.18;105577;1258;73034;-26
2023/12/21 03:53:56;;;;;;;6.80;3.90;;;;;;;3.16;74.51;97641.63;105410;1256;60991;-26
2023/12/21 03:56:23;;;;;;;3.60;2.30;;;;;;;3.15;75.21;97642.50;105401;1260;61122;-27
2023/12/21 03:58:49;;;;;;;3.10;2.00;;;;;;;3.70;73.77;97647.20;105366;1260;73016;-27
2023/12/21 04:01:24;;;;;;;4.90;3.10;;;;;;;3.91;72.56;97644.46;105201;1260;74334;-27
2023/12/21 04:03:52;;;;;;;5.20;3.70;;;;;;;3.85;72.26;97646.45;105243;1260;72510;-27
2023/12/21 04:06:19;;;;;;;6.10;3.60;;;;;;;3.58;72.92;97641.77;105094;1257;61080;-27
2023/12/21 04:08:45;;;;;;;3.30;2.80;;;;;;;3.39;73.26;97642.13;105273;1256;61064;-28
2023/12/21 04:11:13;;;;;;;5.00;3.20;;;;;;;3.15;74.14;97638.58;105321;1257;73034;-27
2023/12/21 04:13:40;;;;;;;7.00;2.90;;;;;;;2.98;74.63;97638.81;105569;1261;74410;-27
2023/12/21 04:16:07;;;;;;;6.50;3.40;;;;;;;3.28;74.48;97633.02;105630;1260;72661;-27
2023/12/21 04:18:34;;;;;;;7.10;3.90;;;;;;;3.83;72.69;97639.55;105557;1256;61053;-27
2023/12/21 04:21:01;;;;;;;4.80;3.20;;;;;;;3.87;71.89;97633.08;105310;1261;61123;-27
2023/12/21 04:23:28;;;;;;;5.70;2.80;;;;;;;3.70;72.02;97628.70;105446;1261;72942;-27
2023/12/21 04:25:55;;;;;;;5.00;3.10;;;;;;;3.53;72.58;97626.39;105593;1261;74178;-26
2023/12/21 04:28:22;;;;;;;5.90;3.50;;;;;;;3.27;73.19;97617.99;105326;1261;72700;-27
2023/12/21 04:30:48;;;;;;;5.00;3.60;;;;;;;3.04;74.18;97619.01;105378;1257;61066;-27
2023/12/21 04:33:16;;;;;;;5.40;2.30;;;;;;;2.90;75.00;97622.72;105448;1260;61109;-27
2023/12/21 04:35:44;;;;;;;7.00;4.00;;;;;;;3.34;74.08;97622.08;105592;1258;73686;-27
2023/12/21 04:38:11;;;;;;;4.10;3.10;;;;;;;3.80;72.44;97621.96;105504;1258;74265;-28
2023/12/21 04:40:38;;;;;;;4.40;3.00;;;;;;;3.76;71.79;97623.93;105252;1258;73331;-28
2023/12/21 04:43:06;;;;;;;4.40;3.10;;;;;;;3.64;71.87;97628.92;105609;1257;61058;-26
2023/12/21 04:45:33;;;;;;;6.30;2.90;;;;;;;3.40;72.59;97626.61;105555;1261;61103;-27
2023/12/21 04:48:00;;;;;;;7.20;3.80;;;;;;;3.20;73.24;97626.23;105416;1260;72845;-27
2023/12/21 04:50:28;;;;;;;5.10;3.80;;;;;;;3.02;74.14;97623.60;105405;1261;74284;-27
2023/12/21 04:52:55;;;;;;;7.20;3.50;;;;;;;2.94;74.30;97623.60;105543;1256;72695;-26
2023/12/21 04:55:22;;;;;;;4.40;3.00;;;;;;;2.78;74.71;97615.39;105365;1258;61176;-27
2023/12/21 04:57:49;;;;;;;4.00;3.10;;;;;;;3.21;74.07;97620.28;105265;1257;61266;-27
2023/12/21 05:00:16;;;;;;;4.40;3.40;;;;;;;3.65;72.45;97627.66;105470;1258;73029;-27
2023/12/21 05:02:42;;;;;;;5.60;2.80;;;;;;;3.75;71.78;97637.75;105568;1257;74340;-27
2023/12/21 05:05:10;;;;;;;5.50;3.10;;;;;;;3.60;71.72;97639.20;105550;1260;72490;-27
2023/12/21 05:07:37;;;;;;;4.30;3.00;;;;;;;3.41;71.99;97641.80;105461;1260;61061;-26
2023/12/21 05:10:05;;;;;;;7.10;3.10;;;;;;;3.21;72.52;97645.05;105428;1258;61679;-27
2023/12/21 05:12:32;;;;;;;4.10;2.60;;;;;;;3.03;72.89;97640.98;105479;1264;73824;-28
2023/12/21 05:14:59;;;;;;;4.30;2.60;;;;;;;2.84;73.85;97644.41;105632;1260;74157;-27
2023/12/21 05:17:26;;;;;;;4.00;2.80;;;;;;;3.21;73.78;97648.78;105484;1260;72658;-27
2023/12/21 05:19:53;;;;;;;4.30;2.80;;;;;;;3.73;72.18;97654.05;105341;1261;61157;-26
2023/12/21 05:22:20;;;;;;;5.50;3.30;;;;;;;3.85;71.24;97653.81;105449;1260;61128;-27
2023/12/21 05:24:47;;;;;;;4.30;2.40;;;;;;;3.69;71.51;97651.29;105528;1258;72820;-27
2023/12/21 05:27:14;;;;;;;4.00;2.40;;;;;;;3.51;72.01;97659.65;105592;1260;73252;-27
2023/12/21 05:29:42;;;;;;;4.60;3.00;;;;;;;3.37;72.16;97656.32;105621;1258;72514;-27
2023/12/21 05:32:09;;;;;;;4.50;2.60;;;;;;;3.25;72.40;97653.16;105363;1257;61135;-27
2023/12/21 05:34:35;;;;;;;4.70;3.10;;;;;;;3.11;72.66;97649.34;105505;1259;61097;-27
2023/12/21 05:37:06;;;;;;;2.40;1.80;;;;;;;2.91;73.57;97654.05;105377;1257;75048;-27
2023/12/21 05:39:35;;;;;;;5.20;3.10;;;;;;;3.22;73.42;97655.02;105400;1258;74303;-26
2023/12/21 05:42:02;;;;;;;5.10;2.90;;;;;;;3.87;71.68;97655.04;105486;1257;71718;-27
2023/12/21 05:44:29;;;;;;;4.60;2.80;;;;;;;3.98;70.52;97647.67;105446;1258;61058;-27
2023/12/21 05:46:56;;;;;;;3.90;2.70;;;;;;;3.78;70.69;97646.46;105301;1260;61168;-27
2023/12/21 05:49:23;;;;;;;7.10;3.40;;;;;;;3.57;71.11;97641.48;105311;1257;73794;-27
2023/12/21 05:51:50;;;;;;;5.40;3.00;;;;;;;3.34;71.89;97642.02;105474;1258;74395;-27
2023/12/21 05:54:17;;;;;;;5.60;3.50;;;;;;;3.14;72.44;97644.33;105559;1257;72753;-27
2023/12/21 05:56:44;;;;;;;6.80;2.90;;;;;;;2.91;73.22;97649.21;105542;1257;61087;-27
2023/12/21 05:59:11;;;;;;;5.20;3.10;;;;;;;2.78;73.12;97648.77;105201;1261;61121;-27
2023/12/21 06:01:39;;;;;;;2.60;1.90;;;;;;;2.59;73.64;97646.52;105563;1257;73928;-27
2023/12/21 06:04:06;;;;;;;6.20;3.80;;;;;;;3.01;73.52;97639.23;105566;1260;72970;-27
2023/12/21 06:06:33;;;;;;;7.20;3.40;;;;;;;3.54;71.97;97644.27;105624;1256;73280;-27
2023/12/21 06:09:00;;;;;;;6.00;3.10;;;;;;;3.56;71.34;97649.63;105471;1256;61151;-27
2023/12/21 06:11:28;;;;;;;7.80;2.80;;;;;;;3.32;71.56;97647.95;105241;1260;61178;-27
2023/12/21 06:13:55;;;;;;;5.90;3.90;;;;;;;2.98;72.71;97645.98;105462;1257;73796;-27
2023/12/21 06:16:22;;;;;;;5.30;3.00;;;;;;;2.71;73.48;97646.17;105362;1260;74292;-27
2023/12/21 06:18:50;;;;;;;6.70;4.40;;;;;;;2.45;74.74;97647.34;105340;1257;72540;-27
2023/12/21 06:21:17;;;;;;;7.60;4.60;;;;;;;2.26;75.44;97650.36;105101;1260;61217;-27
2023/12/21 06:23:44;;;;;;;6.80;4.00;;;;;;;2.38;76.11;97651.42;105552;1256;61116;-27
2023/12/21 06:26:11;;;;;;;11.60;4.30;;;;;;;3.01;74.43;97655.67;105559;1258;73896;-27
2023/12/21 06:28:38;;;;;;;9.80;4.80;;;;;;;3.22;73.35;97657.08;105201;1260;74349;-27
2023/12/21 06:31:05;;;;;;;7.60;4.40;;;;;;;3.21;73.25;97657.19;105260;1257;72665;-27
2023/12/21 06:33:32;;;;;;;8.10;4.50;;;;;;;3.02;73.35;97650.66;105251;1256;61047;-27
2023/12/21 06:35:59;;;;;;;7.50;4.80;;;;;;;2.78;73.62;97646.87;105388;1261;61087;-27
2023/12/21 06:38:26;;;;;;;10.80;5.20;;;;;;;2.57;74.08;97644.30;105510;1257;74186;-27
2023/12/21 06:40:53;;;;;;;10.10;5.70;;;;;;;2.37;74.56;97641.73;105529;1257;74236;-27
2023/12/21 06:43:22;;;;;;;8.10;4.10;;;;;;;2.20;75.49;97639.00;105318;1256;72595;-26
2023/12/21 06:45:49;;;;;;;8.90;4.70;;;;;;;2.67;75.33;97635.15;105529;1257;61062;-27
2023/12/21 06:48:16;;;;;;;11.30;5.30;;;;;;;3.23;73.67;97638.66;105527;1260;61164;-27
2023/12/21 06:50:43;;;;;;;9.00;4.70;;;;;;;3.35;72.97;97641.23;105522;1260;73603;-27
2023/12/21 06:53:15;;;;;;;9.00;5.20;;;;;;;3.23;73.06;97639.20;105482;1257;74461;-27
2023/12/21 06:55:43;;;;;;;8.20;4.40;;;;;;;3.05;73.31;97632.31;105164;1257;73069;-27
2023/12/21 06:58:10;;;;;;;6.00;3.80;;;;;;;2.82;73.88;97630.69;105268;1262;61170;-27
2023/12/21 07:00:37;;;;;;;9.10;5.10;;;;;;;2.60;74.47;97624.50;105309;1259;61195;-26
2023/12/21 07:03:04;;;;;;;7.50;4.30;;;;;;;2.42;75.06;97625.07;105481;1260;73815;-27
2023/12/21 07:05:32;;;;;;;5.50;3.30;;;;;;;2.27;75.56;97624.41;105590;1260;74295;-27
2023/12/21 07:07:59;;;;;;;8.10;4.30;;;;;;;2.74;75.53;97623.05;105355;1256;72679;-27
2023/12/21 07:10:26;;;;;;;8.90;4.60;;;;;;;3.30;73.89;97625.10;105469;1258;61193;-27
2023/12/21 07:12:53;;;;;;;8.50;4.80;;;;;;;3.36;72.99;97624.48;105229;1260;61192;-27
2023/12/21 07:15:20;;;;;;;10.80;5.10;;;;;;;3.18;73.07;97627.03;105610;1257;73887;-27
2023/12/21 07:17:47;;;;;;;8.60;4.40;;;;;;;2.98;73.51;97629.33;105415;1257;74231;-27
2023/12/21 07:20:14;;;;;;;6.30;4.20;;;;;;;2.78;74.03;97633.85;105474;1255;72660;-27
2023/12/21 07:22:41;;;;;;;4.40;2.90;;;;;;;2.58;74.81;97633.43;105376;1257;61093;-27
2023/12/21 07:25:08;;;;;;;3.40;2.60;;;;;;;2.61;75.54;97639.54;105371;1259;62033;-27
2023/12/21 07:27:35;;;;;;;7.00;3.30;;;;;;;3.20;73.98;97639.96;105544;1259;73875;-27
2023/12/21 07:30:04;;;;;;;12.20;4.60;;;;;;;3.49;72.83;97635.95;105576;1257;74727;-27
2023/12/21 07:32:32;;;;;;;6.20;4.10;;;;;;;3.45;72.54;97630.41;105470;1256;72554;-27
2023/12/21 07:34:59;;;;;;;9.90;4.80;;;;;;;3.26;72.81;97631.09;105637;1257;61043;-27
2023/12/21 07:37:27;;;;;;;6.10;4.10;;;;;;;3.03;73.57;97626.73;105495;1260;61142;-28
2023/12/21 07:39:53;;;;;;;4.70;3.10;;;;;;;2.87;74.20;97628.77;105631;1258;73415;-27
2023/12/21 07:42:20;;;;;;;6.40;3.80;;;;;;;2.69;74.91;97628.04;105611;1261;74517;-27
2023/12/21 07:44:47;;;;;;;10.90;5.20;;;;;;;2.83;75.42;97627.80;105613;1257;72506;-27
2023/12/21 07:47:14;;;;;;;5.60;3.80;;;;;;;3.55;73.73;97628.80;105426;1259;61116;-27
2023/12/21 07:49:41;;;;;;;9.00;4.60;;;;;;;3.91;72.34;97627.96;105422;1259;61068;-27
2023/12/21 07:52:08;;;;;;;12.10;5.60;;;;;;;4.08;71.47;97627.73;105560;1257;74934;-28
2023/12/21 07:54:35;;;;;;;8.70;4.80;;;;;;;4.09;71.02;97628.30;105649;1258;74188;-28
2023/12/21 07:57:01;;;;;;;7.10;4.50;;;;;;;4.09;71.09;97626.23;105578;1257;72708;-28
2023/12/21 07:59:29;;;;;;;6.80;3.60;;;;;;;3.94;70.49;97631.34;105567;1256;61138;-27
2023/12/21 08:01:55;;;;;;;5.20;3.10;;;;;;;3.85;71.01;97634.76;105606;1259;61169;-27
2023/12/21 08:04:22;;;;;;;5.20;2.60;;;;;;;3.86;71.31;97630.73;105441;1257;74341;-27
2023/12/21 08:06:49;;;;;;;4.50;2.60;;;;;;;3.79;71.15;97628.52;105608;1257;74355;-27
2023/12/21 08:09:16;;;;;;;3.20;2.00;;;;;;;3.66;71.08;97624.15;105611;1257;72492;-27
2023/12/21 08:11:43;;;;;;;4.30;2.20;;;;;;;3.52;71.81;97624.16;105677;1257;61064;-27
2023/12/21 08:14:10;;;;;;;3.80;2.00;;;;;;;4.11;70.39;97631.95;105512;1257;61184;-27
2023/12/21 08:16:37;;;;;;;2.90;2.10;;;;;;;4.64;68.44;97633.97;105484;1256;73855;-27
2023/12/21 08:19:04;;;;;;;4.10;2.50;;;;;;;4.78;67.90;97634.42;105362;1260;74464;-27
2023/12/21 08:21:32;;;;;;;4.80;2.50;;;;;;;4.66;67.66;97635.10;105511;1256;72980;-27
2023/12/21 08:24:01;;;;;;;4.10;2.50;;;;;;;4.60;67.95;97631.92;105497;1256;61066;-27
2023/12/21 08:26:28;;;;;;;4.40;2.60;;;;;;;4.44;68.12;97624.06;105620;1259;61163;-27
2023/12/21 08:28:55;;;;;;;5.50;2.60;;;;;;;4.21;68.64;97621.85;105655;1258;75109;-27
2023/12/21 08:31:24;;;;;;;4.70;2.30;;;;;;;4.22;68.74;97618.23;105657;1256;75945;-27
2023/12/21 08:33:51;;;;;;;4.00;2.70;;;;;;;4.03;68.97;97607.61;105603;1256;72659;-27
2023/12/21 08:36:18;;;;;;;4.00;2.10;;;;;;;3.83;70.09;97610.53;105608;1256;61065;-27
2023/12/21 08:38:45;;;;;;;3.90;1.90;;;;;;;3.78;70.85;97610.91;105649;1259;61148;-27
2023/12/21 08:41:12;;;;;;;4.40;2.20;;;;;;;4.49;69.08;97615.10;105685;1257;72675;-27
2023/12/21 08:43:39;;;;;;;4.00;2.30;;;;;;;4.86;67.41;97605.94;105628;1256;73661;-27
2023/12/21 08:46:06;;;;;;;6.30;2.70;;;;;;;4.53;67.61;97610.48;105602;1257;72402;-27
2023/12/21 08:48:33;;;;;;;4.90;2.60;;;;;;;4.62;67.92;97609.25;105594;1256;61134;-27
2023/12/21 08:51:00;;;;;;;4.00;2.40;;;;;;;4.90;67.29;97604.13;105577;1257;61144;-27
2023/12/21 08:53:27;;;;;;;3.70;1.90;;;;;;;5.08;66.79;97601.59;105618;1257;73829;-27
2023/12/21 08:55:54;;;;;;;4.50;2.50;;;;;;;5.07;65.99;97592.86;105643;1256;74304;-27
2023/12/21 08:58:21;;;;;;;4.00;2.30;;;;;;;5.07;66.15;97590.48;105659;1257;71619;-27
2023/12/21 09:00:48;;;;;;;3.90;2.40;;;;;;;5.12;65.90;97591.83;105542;1256;61057;-27
2023/12/21 09:03:16;;;;;;;4.20;2.50;;;;;;;5.17;65.57;97591.37;105469;1257;61246;-27
2023/12/21 09:05:43;;;;;;;4.20;2.50;;;;;;;5.20;65.67;97581.71;105672;1257;73625;-27
2023/12/21 09:08:11;;;;;;;4.00;2.30;;;;;;;5.42;64.56;97578.67;105629;1258;75229;-27
2023/12/21 09:10:38;;;;;;;3.20;2.30;;;;;;;5.39;64.29;97573.45;105601;1256;71764;-27
2023/12/21 09:13:04;;;;;;;3.70;1.70;;;;;;;5.34;64.18;97566.40;105509;1257;61056;-27
2023/12/21 09:15:32;;;;;;;4.90;2.10;;;;;;;5.32;63.73;97554.89;105541;1259;61351;-27
2023/12/21 09:17:59;;;;;;;3.20;2.40;;;;;;;5.36;64.01;97549.27;105613;1256;73813;-28
2023/12/21 09:20:26;;;;;;;3.20;2.00;;;;;;;5.22;63.30;97548.13;105652;1256;73114;-27
2023/12/21 09:22:53;;;;;;;5.10;2.10;;;;;;;5.20;64.00;97545.54;105651;1256;72662;-27
2023/12/21 09:25:20;;;;;;;5.90;2.60;;;;;;;5.22;63.53;97536.26;105609;1255;61192;-27
2023/12/21 09:27:47;;;;;;;3.40;2.10;;;;;;;5.23;62.91;97539.12;105493;1259;61544;-27
2023/12/21 09:30:17;;;;;;;3.60;1.90;;;;;;;5.26;62.94;97531.60;105571;1255;73914;-27
2023/12/21 09:32:45;;;;;;;7.00;2.30;;;;;;;5.36;62.70;97527.70;105714;1259;73140;-26
2023/12/21 09:35:15;;;;;;;3.30;1.70;;;;;;;5.40;62.50;97527.74;105386;1257;72378;-27
2023/12/21 09:37:42;;;;;;;3.90;1.80;;;;;;;5.52;62.63;97527.90;105435;1255;61046;-27
2023/12/21 09:40:10;;;;;;;2.70;1.70;;;;;;;5.44;61.81;97530.87;105411;1259;61158;-27
2023/12/21 09:42:38;;;;;;;3.70;2.20;;;;;;;5.18;62.38;97524.73;105250;1256;75280;-27
2023/12/21 09:45:06;;;;;;;3.40;2.10;;;;;;;5.21;63.20;97521.40;105366;1258;74119;-27
2023/12/21 09:47:36;;;;;;;3.70;2.00;;;;;;;5.27;63.21;97526.41;105568;1255;72707;-27
2023/12/21 09:50:04;;;;;;;5.60;2.50;;;;;;;5.30;63.91;97527.19;105438;1256;61081;-26
2023/12/21 09:52:33;;;;;;;4.40;2.30;;;;;;;5.21;63.82;97523.60;105155;1262;61117;-27
2023/12/21 09:55:00;;;;;;;4.80;2.10;;;;;;;5.39;63.65;97519.56;105349;1256;73573;-27
2023/12/21 09:57:28;;;;;;;3.50;1.90;;;;;;;5.41;63.52;97515.77;105427;1257;74312;-27
2023/12/21 09:59:56;;;;;;;3.60;2.20;;;;;;;5.67;62.77;97508.96;105585;1256;71780;-27
2023/12/21 10:02:26;;;;;;;3.30;2.20;;;;;;;5.87;62.32;97505.45;105640;1261;61064;-27
2023/12/21 10:04:54;;;;;;;3.30;2.50;;;;;;;5.82;62.33;97495.63;105618;1259;61182;-27
2023/12/21 10:07:22;;;;;;;7.80;2.90;;;;;;;6.02;62.43;97490.39;105592;1256;73861;-27
2023/12/21 10:09:49;;;;;;;2.20;1.60;;;;;;;6.34;61.13;97478.40;105413;1256;74906;-27
2023/12/21 10:12:16;;;;;;;5.30;2.60;;;;;;;6.32;60.93;97471.08;105512;1256;73245;-27
2023/12/21 10:14:43;;;;;;;7.20;3.00;;;;;;;6.46;60.66;97463.48;105559;1256;61951;-27
2023/12/21 10:17:11;;;;;;;5.30;2.60;;;;;;;6.66;60.43;97464.45;105591;1257;61115;-27
2023/12/21 10:19:44;;;;;;;2.60;2.10;;;;;;;6.72;59.90;97460.30;105512;1256;73687;-27
2023/12/21 10:22:11;;;;;;;2.40;1.80;;;;;;;6.39;60.23;97455.34;105305;1254;74521;-27
2023/12/21 10:24:38;;;;;;;2.60;1.70;;;;;;;6.39;60.23;97442.52;105755;1254;72788;-27
2023/12/21 10:27:12;;;;;;;2.50;1.70;;;;;;;6.25;60.71;97433.09;105490;1254;61242;-27
2023/12/21 10:29:40;;;;;;;3.10;1.80;;;;;;;5.92;61.67;97429.46;105573;1254;61140;-27
2023/12/21 10:32:08;;;;;;;3.10;1.80;;;;;;;6.22;61.08;97418.70;105576;1254;73713;-27
2023/12/21 10:34:35;;;;;;;2.20;1.60;;;;;;;6.33;60.65;97418.15;105652;1261;75849;-27
2023/12/21 10:37:03;;;;;;;4.70;2.30;;;;;;;6.27;60.33;97413.29;105577;1254;73079;-27
2023/12/21 10:39:30;;;;;;;5.70;2.00;;;;;;;6.45;60.09;97409.32;105735;1254;61505;-27
2023/12/21 10:41:57;;;;;;;1.60;1.10;;;;;;;6.63;59.16;97400.80;105728;1254;61164;-27
2023/12/21 10:44:24;;;;;;;2.90;1.50;;;;;;;6.78;58.34;97395.63;105554;1254;73564;-27
2023/12/21 10:46:51;;;;;;;3.60;2.00;;;;;;;6.95;57.50;97392.16;105553;1254;73831;-27
2023/12/21 10:49:19;;;;;;;3.70;2.20;;;;;;;6.99;58.03;97378.83;105787;1254;72076;-27
2023/12/21 10:51:46;;;;;;;3.50;2.30;;;;;;;7.00;58.30;97372.33;105659;1253;61076;-27
2023/12/21 10:54:13;;;;;;;8.20;2.60;;;;;;;6.92;58.45;97372.81;105579;1259;61159;-27
2023/12/21 10:56:43;;;;;;;2.10;1.80;;;;;;;6.74;58.34;97367.49;105495;1256;74441;-27
2023/12/21 10:59:13;;;;;;;7.90;2.30;;;;;;;6.56;59.03;97358.30;105349;1257;74835;-26
2023/12/21 11:01:40;;;;;;;3.70;1.90;;;;;;;6.49;59.46;97359.30;105403;1257;72906;-27
2023/12/21 11:04:08;;;;;;;5.10;2.50;;;;;;;6.42;59.65;97351.96;105343;1256;61151;-27
2023/12/21 11:06:35;;;;;;;6.20;2.60;;;;;;;6.41;59.88;97350.73;105652;1254;61118;-27
2023/12/21 11:09:06;;;;;;;3.30;2.30;;;;;;;6.09;60.58;97343.22;105649;1254;73662;-27
2023/12/21 11:11:34;;;;;;;5.30;2.60;;;;;;;5.90;61.77;97333.18;105636;1259;73842;-27
2023/12/21 11:14:01;;;;;;;2.50;1.90;;;;;;;5.57;62.87;97329.55;105616;1257;73806;-27
2023/12/21 11:16:37;;;;;;;3.50;2.40;;;;;;;5.54;63.52;97323.77;105749;1254;61056;-27
2023/12/21 11:19:05;;;;;;;5.50;2.20;;;;;;;5.47;64.18;97322.53;105595;1262;61230;-27
2023/12/21 11:21:33;;;;;;;4.20;2.50;;;;;;;5.51;63.54;97319.86;105479;1254;75309;-27
2023/12/21 11:24:00;;;;;;;4.40;2.40;;;;;;;5.39;64.21;97311.81;105414;1254;74424;-27
2023/12/21 11:26:28;;;;;;;2.10;1.30;;;;;;;5.28;63.69;97303.14;105732;1254;72519;-27
2023/12/21 11:29:05;;;;;;;2.30;1.80;;;;;;;5.27;64.04;97298.29;105770;1254;61062;-27
2023/12/21 11:31:37;;;;;;;5.10;2.90;;;;;;;5.39;64.05;97294.75;105447;1254;61609;-27
2023/12/21 11:34:11;;;;;;;4.50;2.80;;;;;;;5.54;63.60;97280.38;105209;1263;73622;-27
2023/12/21 11:36:39;;;;;;;2.60;1.70;;;;;;;5.75;63.21;97275.12;105498;1254;74365;-27
2023/12/21 11:39:10;;;;;;;2.60;2.00;;;;;;;5.82;62.96;97271.38;105627;1256;72117;-27
2023/12/21 11:41:57;;;;;;;2.70;1.90;;;;;;;5.74;63.04;97266.52;105688;1254;61064;-27
2023/12/21 11:44:35;;;;;;;3.20;2.10;;;;;;;5.79;62.83;97263.17;105665;1259;61135;-27
2023/12/21 11:47:05;;;;;;;2.80;2.40;;;;;;;5.62;63.18;97257.49;105580;1257;73802;-27
2023/12/21 11:49:33;;;;;;;3.30;2.50;;;;;;;5.59;63.89;97258.59;105264;1261;73268;-27
2023/12/21 11:52:00;;;;;;;4.10;1.70;;;;;;;5.85;62.82;97249.92;105494;1255;72793;-28